Time;durP1;ratioP1;P1;durP2;ratioP2;P2;SDS_P1;SDS_P2;PMS_P1;PMS_P2;Temp;Humidity;BMP_temperature;BMP_pressure;BME280_temperature;BME280_humidity;BME280_pressure;Samples;Min_cycle;Max_cycle;Signal;HPM_P1;HPM_P2
2023/10/26 00:00:19;;;;;;;16.53;6.50;;;10.30;99.90;;;;;;4980481;28;20185;-69
2023/10/26 00:02:44;;;;;;;16.57;6.50;;;10.30;99.90;;;;;;4982810;28;20185;-66
2023/10/26 00:05:10;;;;;;;19.57;7.43;;;10.30;99.90;;;;;;4981051;28;20231;-68
2023/10/26 00:07:35;;;;;;;22.87;7.53;;;10.30;99.90;;;;;;4982403;28;20232;-63
2023/10/26 00:10:01;;;;;;;15.93;7.30;;;10.30;99.90;;;;;;4982322;28;20251;-64
2023/10/26 00:12:27;;;;;;;21.03;7.03;;;10.30;99.90;;;;;;4985011;28;20283;-63
2023/10/26 00:14:54;;;;;;;20.63;8.30;;;10.30;99.90;;;;;;4982733;28;20216;-64
2023/10/26 00:17:20;;;;;;;22.40;8.47;;;10.30;99.90;;;;;;4982953;28;20631;-65
2023/10/26 00:19:45;;;;;;;26.73;9.90;;;10.30;99.90;;;;;;4965171;28;20439;-63
2023/10/26 00:22:11;;;;;;;21.17;8.57;;;10.30;99.90;;;;;;4965380;28;20181;-65
2023/10/26 00:24:37;;;;;;;19.07;7.30;;;10.30;99.90;;;;;;4984128;28;20248;-66
2023/10/26 00:27:03;;;;;;;18.27;6.97;;;10.30;99.90;;;;;;4968061;28;20204;-64
2023/10/26 00:29:29;;;;;;;15.30;5.87;;;10.30;99.90;;;;;;4982294;28;20436;-62
2023/10/26 00:31:55;;;;;;;11.17;4.80;;;10.20;99.90;;;;;;4980947;28;20492;-64
2023/10/26 00:34:21;;;;;;;16.83;5.80;;;10.30;99.90;;;;;;4979774;28;20435;-62
2023/10/26 00:36:47;;;;;;;13.53;5.63;;;10.30;99.90;;;;;;4979103;28;20215;-64
2023/10/26 00:39:12;;;;;;;10.00;3.93;;;10.20;99.90;;;;;;4979806;28;20206;-64
2023/10/26 00:41:38;;;;;;;19.00;5.50;;;10.30;99.90;;;;;;4980251;28;20503;-64
2023/10/26 00:44:04;;;;;;;10.10;4.23;;;10.30;99.90;;;;;;4985755;28;20247;-65
2023/10/26 00:46:30;;;;;;;17.80;6.30;;;10.30;99.90;;;;;;4962906;28;20231;-66
2023/10/26 00:48:56;;;;;;;11.60;4.73;;;10.20;99.90;;;;;;4979509;28;20428;-64
2023/10/26 00:51:23;;;;;;;20.70;8.13;;;10.20;99.90;;;;;;4979444;28;20489;-63
2023/10/26 00:53:50;;;;;;;17.60;7.30;;;10.20;99.90;;;;;;4979233;28;20466;-65
2023/10/26 00:56:20;;;;;;;24.43;8.67;;;10.20;99.90;;;;;;4980121;28;20443;-66
2023/10/26 00:58:46;;;;;;;25.57;9.53;;;10.10;99.90;;;;;;4969928;28;20945;-66
2023/10/26 01:01:12;;;;;;;22.67;8.27;;;10.10;99.90;;;;;;4980318;28;20428;-64
2023/10/26 01:03:39;;;;;;;15.23;6.27;;;10.10;99.90;;;;;;4981477;28;20447;-64
2023/10/26 01:06:07;;;;;;;18.63;7.40;;;10.10;99.90;;;;;;4980074;28;20185;-64
2023/10/26 01:08:33;;;;;;;33.57;9.93;;;10.10;99.90;;;;;;4978641;28;20403;-65
2023/10/26 01:11:00;;;;;;;24.00;9.27;;;10.10;99.90;;;;;;4965030;28;20408;-64
2023/10/26 01:13:26;;;;;;;20.47;7.80;;;10.10;99.90;;;;;;4973646;28;20441;-64
2023/10/26 01:15:51;;;;;;;15.30;6.80;;;10.10;99.90;;;;;;4962450;28;20424;-65
2023/10/26 01:18:17;;;;;;;23.03;8.60;;;10.10;99.90;;;;;;4961447;28;20208;-65
2023/10/26 01:20:43;;;;;;;26.67;10.87;;;10.00;99.90;;;;;;4961808;28;20232;-65
2023/10/26 01:23:09;;;;;;;25.40;9.20;;;10.10;99.90;;;;;;4977693;28;20181;-65
2023/10/26 01:25:35;;;;;;;27.30;10.10;;;10.00;99.90;;;;;;4979095;28;20420;-65
2023/10/26 01:28:01;;;;;;;20.90;8.13;;;10.00;99.90;;;;;;4986123;28;20427;-64
2023/10/26 01:30:27;;;;;;;20.90;7.70;;;10.00;99.90;;;;;;4978380;28;20199;-64
2023/10/26 01:32:52;;;;;;;21.47;8.20;;;10.00;99.90;;;;;;4978129;28;20415;-64
2023/10/26 01:35:18;;;;;;;25.30;8.10;;;10.00;99.90;;;;;;4961384;28;20286;-64
2023/10/26 01:37:43;;;;;;;21.10;7.20;;;10.00;99.90;;;;;;4978315;28;20216;-67
2023/10/26 01:40:10;;;;;;;16.37;6.90;;;10.00;99.90;;;;;;4961279;28;20188;-65
2023/10/26 01:42:36;;;;;;;21.40;8.30;;;10.00;99.90;;;;;;4984515;28;20188;-63
2023/10/26 01:45:02;;;;;;;29.83;9.93;;;10.00;99.90;;;;;;4980628;28;20465;-65
2023/10/26 01:47:28;;;;;;;30.37;9.10;;;10.00;99.90;;;;;;4961365;28;20208;-64
2023/10/26 01:49:53;;;;;;;25.60;8.60;;;10.00;99.90;;;;;;4961924;28;20424;-65
2023/10/26 01:52:19;;;;;;;31.57;9.97;;;10.00;99.90;;;;;;4962602;28;20263;-64
2023/10/26 01:54:44;;;;;;;27.87;8.83;;;10.00;99.90;;;;;;4978455;28;20298;-64
2023/10/26 01:57:10;;;;;;;16.87;6.67;;;10.00;99.90;;;;;;4978854;28;20236;-65
2023/10/26 01:59:35;;;;;;;30.07;8.67;;;10.00;99.90;;;;;;4961320;28;20321;-65
2023/10/26 02:02:01;;;;;;;36.93;10.80;;;10.00;99.90;;;;;;4961623;28;20560;-65
2023/10/26 02:04:27;;;;;;;37.53;10.33;;;9.90;99.90;;;;;;4962157;28;20212;-64
2023/10/26 02:06:52;;;;;;;34.30;9.37;;;9.90;99.90;;;;;;4979882;28;20177;-65
2023/10/26 02:09:18;;;;;;;45.77;13.67;;;9.90;99.90;;;;;;4980663;28;20196;-65
2023/10/26 02:11:44;;;;;;;34.73;12.00;;;9.90;99.90;;;;;;4987617;28;20465;-64
2023/10/26 02:14:09;;;;;;;33.13;11.37;;;9.90;99.90;;;;;;4982122;28;20226;-68
2023/10/26 02:16:35;;;;;;;26.10;9.30;;;9.90;99.90;;;;;;4966303;28;20189;-63
2023/10/26 02:19:00;;;;;;;47.97;13.70;;;9.90;99.90;;;;;;4981035;28;20223;-62
2023/10/26 02:21:26;;;;;;;36.90;14.70;;;9.90;99.90;;;;;;4949596;28;20543;-63
2023/10/26 02:23:52;;;;;;;44.13;15.90;;;9.90;99.90;;;;;;4982274;28;20223;-64
2023/10/26 02:26:17;;;;;;;46.80;14.60;;;9.90;99.90;;;;;;4982530;28;20274;-65
2023/10/26 02:28:43;;;;;;;37.73;13.60;;;9.90;99.90;;;;;;4965559;28;20192;-65
2023/10/26 02:31:09;;;;;;;40.90;15.17;;;9.90;99.90;;;;;;4982368;28;20279;-62
2023/10/26 02:33:34;;;;;;;47.33;15.17;;;9.80;99.90;;;;;;4981651;28;20211;-65
2023/10/26 02:36:00;;;;;;;47.57;15.93;;;9.90;99.90;;;;;;4982793;28;20192;-66
2023/10/26 02:38:25;;;;;;;36.17;14.47;;;9.80;99.90;;;;;;4965087;28;20228;-63
2023/10/26 02:40:53;;;;;;;42.53;15.13;;;9.80;99.90;;;;;;4981819;28;20264;-64
2023/10/26 02:43:19;;;;;;;33.37;13.20;;;9.90;99.90;;;;;;4987467;28;20948;-66
2023/10/26 02:45:44;;;;;;;35.70;12.57;;;9.90;99.90;;;;;;4987250;28;20455;-65
2023/10/26 02:48:10;;;;;;;39.87;13.30;;;9.90;99.90;;;;;;4964834;28;20458;-65
2023/10/26 02:50:36;;;;;;;48.40;14.30;;;9.90;99.90;;;;;;4982265;28;20215;-64
2023/10/26 02:53:01;;;;;;;39.27;13.13;;;9.90;99.90;;;;;;4981131;28;20200;-65
2023/10/26 02:55:27;;;;;;;39.97;12.77;;;9.90;99.90;;;;;;4981168;28;20299;-65
2023/10/26 02:57:53;;;;;;;40.27;13.20;;;9.90;99.90;;;;;;4964380;28;20648;-64
2023/10/26 03:00:18;;;;;;;29.90;10.50;;;9.90;99.90;;;;;;4968759;28;20251;-63
2023/10/26 03:02:44;;;;;;;39.00;11.20;;;9.90;99.90;;;;;;4985516;28;20192;-66
2023/10/26 03:05:09;;;;;;;44.47;13.17;;;9.90;99.90;;;;;;4986815;28;20512;-65
2023/10/26 03:07:35;;;;;;;40.70;13.17;;;9.80;99.90;;;;;;4967943;28;20208;-66
2023/10/26 03:10:01;;;;;;;36.67;12.57;;;9.90;99.90;;;;;;4984802;28;20208;-64
2023/10/26 03:12:26;;;;;;;42.50;13.97;;;9.80;99.90;;;;;;4968141;28;20267;-66
2023/10/26 03:14:52;;;;;;;55.37;16.40;;;9.80;99.90;;;;;;4989608;28;20299;-64
2023/10/26 03:17:18;;;;;;;53.40;17.33;;;9.80;99.90;;;;;;4983926;28;20295;-66
2023/10/26 03:19:44;;;;;;;58.13;17.90;;;9.80;99.90;;;;;;4980667;28;20511;-66
2023/10/26 03:22:10;;;;;;;59.40;18.27;;;9.80;99.90;;;;;;4980647;28;20195;-66
2023/10/26 03:24:36;;;;;;;58.60;18.17;;;9.80;99.90;;;;;;4980624;28;20216;-66
2023/10/26 03:27:02;;;;;;;59.57;17.50;;;9.80;99.90;;;;;;4987858;28;20442;-64
2023/10/26 03:29:28;;;;;;;62.37;17.33;;;9.80;99.90;;;;;;4982093;28;20412;-66
2023/10/26 03:31:53;;;;;;;45.40;13.77;;;9.80;99.90;;;;;;4980813;28;20199;-65
2023/10/26 03:34:19;;;;;;;38.50;12.43;;;9.80;99.90;;;;;;4983248;28;20255;-64
2023/10/26 03:36:45;;;;;;;44.50;12.40;;;9.80;99.90;;;;;;4963289;28;20495;-65
2023/10/26 03:39:11;;;;;;;31.10;9.57;;;9.80;99.90;;;;;;4963801;28;20201;-66
2023/10/26 03:41:37;;;;;;;28.80;10.17;;;9.80;99.90;;;;;;4967328;28;20422;-68
2023/10/26 03:44:03;;;;;;;34.67;10.40;;;9.80;99.90;;;;;;4987888;28;20420;-65
2023/10/26 03:46:30;;;;;;;38.20;11.13;;;9.80;99.90;;;;;;4980006;28;20204;-65
2023/10/26 03:48:56;;;;;;;34.30;9.70;;;9.80;99.90;;;;;;4980661;28;20428;-66
2023/10/26 03:51:22;;;;;;;26.60;9.30;;;9.80;99.90;;;;;;4980723;28;20464;-66
2023/10/26 03:53:47;;;;;;;26.50;7.60;;;9.80;99.90;;;;;;4979636;28;20208;-67
2023/10/26 03:56:14;;;;;;;22.00;6.53;;;9.80;99.90;;;;;;4964027;28;20195;-65
2023/10/26 03:58:40;;;;;;;44.93;11.80;;;9.80;99.90;;;;;;4987313;28;20451;-66
2023/10/26 04:01:05;;;;;;;34.07;10.77;;;9.80;99.90;;;;;;4963186;28;20558;-65
2023/10/26 04:03:31;;;;;;;44.50;13.80;;;9.80;99.90;;;;;;4980620;28;20211;-65
2023/10/26 04:05:56;;;;;;;60.70;16.40;;;9.80;99.90;;;;;;4983782;28;20192;-65
2023/10/26 04:08:22;;;;;;;64.60;16.70;;;9.80;99.90;;;;;;4981778;28;20201;-66
2023/10/26 04:10:48;;;;;;;49.90;15.40;;;9.80;99.90;;;;;;4980623;28;20266;-66
2023/10/26 04:13:13;;;;;;;38.50;12.20;;;9.80;99.90;;;;;;4981541;28;20227;-66
2023/10/26 04:15:39;;;;;;;45.77;13.80;;;9.80;99.90;;;;;;4980029;28;20220;-67
2023/10/26 04:18:05;;;;;;;48.20;13.70;;;9.80;99.90;;;;;;4981663;28;20530;-64
2023/10/26 04:20:31;;;;;;;32.30;10.80;;;9.80;99.90;;;;;;4980726;28;20192;-64
2023/10/26 04:22:57;;;;;;;29.50;9.77;;;9.80;99.90;;;;;;4980040;28;20416;-64
2023/10/26 04:25:27;;;;;;;30.50;10.70;;;9.80;99.90;;;;;;4980703;28;20224;-66
2023/10/26 04:27:53;;;;;;;34.80;9.90;;;9.80;99.90;;;;;;4985101;28;20235;-66
2023/10/26 04:30:19;;;;;;;23.30;8.90;;;9.80;99.90;;;;;;4980491;28;20428;-64
2023/10/26 04:32:44;;;;;;;22.90;7.80;;;9.80;99.90;;;;;;4980612;28;20711;-65
2023/10/26 04:35:10;;;;;;;23.50;7.53;;;9.80;99.90;;;;;;4964036;28;20212;-64
2023/10/26 04:37:35;;;;;;;26.50;8.00;;;9.80;99.90;;;;;;4980997;28;20266;-66
2023/10/26 04:40:01;;;;;;;23.37;7.87;;;9.80;99.90;;;;;;4981004;28;20196;-64
2023/10/26 04:42:26;;;;;;;14.60;5.90;;;9.80;99.90;;;;;;4968504;28;20200;-64
2023/10/26 04:44:52;;;;;;;14.80;5.43;;;9.80;99.90;;;;;;4981419;28;20623;-65
2023/10/26 04:47:18;;;;;;;12.87;5.43;;;9.80;99.90;;;;;;4980644;28;20202;-64
2023/10/26 04:49:43;;;;;;;9.97;4.00;;;9.80;99.90;;;;;;4980449;28;20200;-65
2023/10/26 04:52:14;;;;;;;8.90;3.73;;;9.80;99.90;;;;;;4982532;28;20484;-64
2023/10/26 04:54:39;;;;;;;12.87;4.30;;;9.90;99.90;;;;;;4982654;28;20219;-65
2023/10/26 04:57:05;;;;;;;8.03;3.77;;;9.80;99.90;;;;;;4985278;28;20903;-69
2023/10/26 04:59:30;;;;;;;16.97;5.20;;;9.80;99.90;;;;;;4947725;28;20185;-66
2023/10/26 05:01:56;;;;;;;21.67;6.40;;;9.80;99.90;;;;;;4982215;28;20404;-64
2023/10/26 05:04:22;;;;;;;21.23;5.83;;;9.80;99.90;;;;;;4963594;28;20492;-66
2023/10/26 05:06:47;;;;;;;28.47;8.50;;;9.80;99.90;;;;;;4981993;28;20200;-66
2023/10/26 05:09:13;;;;;;;20.30;6.60;;;9.80;99.90;;;;;;4981635;28;20459;-66
2023/10/26 05:11:38;;;;;;;13.30;5.47;;;9.80;99.90;;;;;;4983124;28;20599;-65
2023/10/26 05:14:06;;;;;;;12.73;4.93;;;9.80;99.90;;;;;;4972860;28;20227;-67
2023/10/26 05:16:31;;;;;;;13.10;4.10;;;9.80;99.90;;;;;;4982023;28;20579;-64
2023/10/26 05:18:57;;;;;;;7.57;3.40;;;9.80;99.90;;;;;;4981934;28;20455;-67
2023/10/26 05:21:22;;;;;;;12.07;3.97;;;9.80;99.90;;;;;;4979496;28;20216;-68
2023/10/26 05:23:48;;;;;;;10.67;4.80;;;9.70;99.90;;;;;;4965041;28;20212;-68
2023/10/26 05:26:13;;;;;;;16.83;5.80;;;9.70;99.90;;;;;;4983863;28;20192;-66
2023/10/26 05:28:39;;;;;;;13.97;5.47;;;9.70;99.90;;;;;;4982982;28;20231;-68
2023/10/26 05:31:05;;;;;;;40.83;11.50;;;9.70;99.90;;;;;;4982582;28;20180;-68
2023/10/26 05:33:30;;;;;;;31.37;10.43;;;9.60;99.90;;;;;;4982948;28;20220;-67
2023/10/26 05:35:56;;;;;;;32.40;10.40;;;9.60;99.90;;;;;;4983124;28;20177;-66
2023/10/26 05:38:21;;;;;;;36.17;10.70;;;9.60;99.90;;;;;;4981593;28;20288;-68
2023/10/26 05:40:55;;;;;;;23.77;8.67;;;9.60;99.90;;;;;;4982479;28;20313;-65
2023/10/26 05:43:21;;;;;;;36.13;10.67;;;9.60;99.90;;;;;;4984598;28;20658;-69
2023/10/26 05:45:47;;;;;;;28.93;10.03;;;9.60;99.90;;;;;;4967559;28;20768;-67
2023/10/26 05:48:13;;;;;;;24.20;8.20;;;9.60;99.90;;;;;;4958586;29;20483;-66
2023/10/26 05:50:41;;;;;;;36.07;10.70;;;9.60;99.90;;;;;;4978355;28;20298;-64
2023/10/26 05:53:08;;;;;;;21.07;8.47;;;9.60;99.90;;;;;;4982083;28;20478;-70
2023/10/26 05:55:34;;;;;;;18.47;6.47;;;9.60;99.90;;;;;;4949162;28;20412;-70
2023/10/26 05:58:00;;;;;;;15.70;6.13;;;9.60;99.90;;;;;;4974021;28;20558;-66
2023/10/26 06:00:26;;;;;;;11.10;5.23;;;9.60;99.90;;;;;;4964311;28;20205;-66
2023/10/26 06:02:52;;;;;;;17.90;6.73;;;9.60;99.90;;;;;;4983098;28;20180;-69
2023/10/26 06:05:18;;;;;;;28.60;9.87;;;9.60;99.90;;;;;;4964856;28;20291;-69
2023/10/26 06:07:43;;;;;;;36.27;11.37;;;9.60;99.90;;;;;;4965177;28;20498;-68
2023/10/26 06:10:10;;;;;;;27.30;12.00;;;9.50;99.90;;;;;;4982380;28;20184;-70
2023/10/26 06:12:36;;;;;;;36.73;11.87;;;9.50;99.90;;;;;;4990480;28;20211;-68
2023/10/26 06:15:01;;;;;;;28.70;10.20;;;9.50;99.90;;;;;;4982442;28;20458;-66
2023/10/26 06:17:27;;;;;;;34.27;10.30;;;9.50;99.90;;;;;;4966451;28;20447;-67
2023/10/26 06:19:53;;;;;;;23.83;8.97;;;9.40;99.90;;;;;;4982860;28;20204;-67
2023/10/26 06:22:18;;;;;;;45.57;12.47;;;9.40;99.90;;;;;;4984236;28;20196;-67
2023/10/26 06:24:44;;;;;;;28.37;10.40;;;9.40;99.90;;;;;;4983023;28;20212;-68
2023/10/26 06:27:11;;;;;;;18.23;7.50;;;9.40;99.90;;;;;;4951683;28;20203;-70
2023/10/26 06:29:36;;;;;;;18.60;6.30;;;9.40;99.90;;;;;;4983413;28;20427;-68
2023/10/26 06:32:02;;;;;;;15.80;6.10;;;9.40;99.90;;;;;;4984586;28;20420;-68
2023/10/26 06:34:29;;;;;;;14.03;5.80;;;9.40;99.90;;;;;;4984707;28;20537;-69
2023/10/26 06:36:55;;;;;;;12.57;4.50;;;9.40;99.90;;;;;;4968809;28;20462;-68
2023/10/26 06:39:20;;;;;;;8.40;3.40;;;9.40;99.90;;;;;;4986408;28;20423;-68
2023/10/26 06:41:46;;;;;;;6.90;3.70;;;9.50;99.90;;;;;;4963534;28;20349;-66
2023/10/26 06:44:15;;;;;;;10.63;4.70;;;9.50;99.90;;;;;;5528940;23;20429;-75
2023/10/26 06:46:41;;;;;;;21.60;5.87;;;9.60;99.90;;;;;;5022889;28;20211;-73
2023/10/26 06:49:06;;;;;;;31.03;8.80;;;9.60;99.90;;;;;;5022700;28;20610;-72
2023/10/26 06:51:32;;;;;;;26.90;8.97;;;9.60;99.90;;;;;;5024030;28;20566;-71
2023/10/26 06:53:57;;;;;;;20.57;7.83;;;9.50;99.90;;;;;;5006576;28;20471;-72
2023/10/26 06:56:23;;;;;;;16.00;5.97;;;9.50;99.90;;;;;;4985322;28;20198;-70
2023/10/26 06:58:49;;;;;;;17.97;6.00;;;9.50;99.90;;;;;;4990752;28;20250;-73
2023/10/26 07:01:14;;;;;;;10.93;5.00;;;9.50;99.90;;;;;;4986307;28;20211;-76
2023/10/26 07:03:40;;;;;;;11.30;5.07;;;9.60;99.90;;;;;;4987075;28;20290;-74
2023/10/26 07:06:06;;;;;;;8.57;2.57;;;9.70;99.90;;;;;;4985555;28;20246;-72
2023/10/26 07:08:35;;;;;;;7.20;2.80;;;9.70;99.90;;;;;;5002338;28;20282;-73
2023/10/26 07:11:07;;;;;;;6.47;2.70;;;9.80;99.90;;;;;;5000700;28;20422;-75
2023/10/26 07:13:32;;;;;;;7.10;2.20;;;9.80;99.90;;;;;;4974774;28;20929;-73
2023/10/26 07:16:03;;;;;;;5.40;1.97;;;9.80;99.90;;;;;;5000359;28;20454;-75
2023/10/26 07:18:29;;;;;;;3.93;2.03;;;9.80;99.90;;;;;;4992671;28;20354;-73
2023/10/26 07:20:55;;;;;;;4.93;1.77;;;9.90;99.90;;;;;;5001991;28;20430;-74
2023/10/26 07:23:20;;;;;;;3.80;1.83;;;10.00;99.90;;;;;;5002617;28;20422;-76
2023/10/26 07:25:46;;;;;;;3.03;1.80;;;10.00;99.90;;;;;;4985313;28;20222;-75
2023/10/26 07:28:12;;;;;;;3.90;2.30;;;10.10;99.90;;;;;;5005219;28;20196;-75
2023/10/26 07:30:40;;;;;;;6.50;3.00;;;10.10;99.90;;;;;;4987549;28;20426;-75
2023/10/26 07:33:06;;;;;;;7.57;3.30;;;10.10;99.90;;;;;;4976046;28;20204;-77
2023/10/26 07:35:38;;;;;;;8.97;3.37;;;10.10;99.90;;;;;;4971730;28;20521;-76
2023/10/26 07:38:04;;;;;;;4.67;2.50;;;10.10;99.90;;;;;;4985461;28;20215;-75
2023/10/26 07:40:30;;;;;;;4.07;2.00;;;10.10;99.90;;;;;;4985736;28;20714;-75
2023/10/26 07:42:56;;;;;;;5.00;2.40;;;10.20;99.90;;;;;;4999209;28;20435;-76
2023/10/26 07:45:21;;;;;;;3.00;2.47;;;10.20;99.90;;;;;;5005731;28;20282;-78
2023/10/26 07:47:48;;;;;;;9.40;2.90;;;10.20;99.90;;;;;;5004941;28;20430;-76
2023/10/26 07:50:17;;;;;;;9.53;4.23;;;10.30;99.90;;;;;;4984794;28;20199;-76
2023/10/26 07:52:42;;;;;;;14.53;4.63;;;10.20;99.90;;;;;;4969686;28;20446;-74
2023/10/26 07:55:08;;;;;;;15.87;6.57;;;10.20;99.90;;;;;;4981804;28;20463;-78
2023/10/26 07:57:34;;;;;;;14.23;6.80;;;10.20;99.90;;;;;;5000493;28;20341;-75
2023/10/26 07:59:59;;;;;;;22.63;7.40;;;10.20;99.90;;;;;;4985577;28;20195;-74
2023/10/26 08:02:25;;;;;;;16.70;5.90;;;10.20;99.90;;;;;;4982947;28;20239;-76
2023/10/26 08:04:50;;;;;;;12.63;5.33;;;10.30;99.90;;;;;;5001650;28;20246;-74
2023/10/26 08:07:16;;;;;;;16.40;5.53;;;10.30;99.90;;;;;;4994000;28;20192;-75
2023/10/26 08:09:42;;;;;;;22.13;5.07;;;10.40;99.90;;;;;;4971909;28;20661;-77
2023/10/26 08:12:07;;;;;;;11.20;4.33;;;10.50;99.90;;;;;;4987639;28;20210;-77
2023/10/26 08:14:33;;;;;;;13.50;5.10;;;10.50;99.90;;;;;;4984746;28;20223;-75
2023/10/26 08:16:59;;;;;;;11.40;5.07;;;10.50;99.90;;;;;;5005247;28;20191;-73
2023/10/26 08:19:25;;;;;;;11.33;5.30;;;10.40;99.90;;;;;;4992675;28;20172;-74
2023/10/26 08:21:51;;;;;;;13.73;6.07;;;10.50;99.90;;;;;;5003991;28;20195;-77
2023/10/26 08:24:16;;;;;;;24.30;8.83;;;10.50;99.90;;;;;;4986207;28;20466;-75
2023/10/26 08:26:42;;;;;;;21.70;8.93;;;10.40;99.90;;;;;;4991321;28;20191;-76
2023/10/26 08:29:08;;;;;;;24.73;10.40;;;10.40;99.90;;;;;;4981434;28;20191;-76
2023/10/26 08:31:38;;;;;;;20.17;8.80;;;10.40;99.90;;;;;;4977449;28;20187;-78
2023/10/26 08:34:06;;;;;;;19.93;7.70;;;10.40;99.90;;;;;;4969279;28;20179;-73
2023/10/26 08:36:32;;;;;;;19.97;7.80;;;10.50;99.90;;;;;;4998050;28;20698;-74
2023/10/26 08:38:58;;;;;;;24.87;9.43;;;10.60;99.90;;;;;;5002047;28;20258;-75
2023/10/26 08:41:23;;;;;;;20.73;7.37;;;10.70;99.90;;;;;;4986508;28;20190;-78
2023/10/26 08:43:50;;;;;;;27.20;11.00;;;10.80;99.90;;;;;;5008061;28;20198;-74
2023/10/26 08:46:17;;;;;;;23.13;8.50;;;10.80;99.90;;;;;;4986363;28;20258;-74
2023/10/26 08:48:46;;;;;;;19.80;8.10;;;10.80;99.90;;;;;;4983477;28;20431;-66
2023/10/26 08:51:12;;;;;;;24.60;11.50;;;10.80;99.90;;;;;;4999001;28;20430;-67
2023/10/26 08:53:39;;;;;;;19.63;8.07;;;10.90;99.90;;;;;;4999147;28;20452;-66
2023/10/26 08:56:08;;;;;;;19.30;7.60;;;11.00;99.90;;;;;;4979055;28;20525;-67
2023/10/26 08:58:33;;;;;;;29.93;8.10;;;11.10;99.90;;;;;;4977207;28;20466;-70
2023/10/26 09:01:01;;;;;;;38.63;11.10;;;11.30;99.90;;;;;;4998581;28;20446;-68
2023/10/26 09:03:26;;;;;;;25.53;9.93;;;11.30;99.90;;;;;;4998412;28;20230;-67
2023/10/26 09:05:53;;;;;;;24.67;9.40;;;11.30;99.90;;;;;;4999883;28;20753;-68
2023/10/26 09:08:19;;;;;;;24.93;10.73;;;11.30;99.90;;;;;;5000244;28;20199;-69
2023/10/26 09:10:45;;;;;;;29.53;13.80;;;11.20;99.90;;;;;;4983709;28;20497;-69
2023/10/26 09:13:11;;;;;;;32.67;17.50;;;11.00;99.90;;;;;;4984122;28;20614;-66
2023/10/26 09:15:51;;;;;;;42.63;18.17;;;10.70;99.90;;;;;;4983074;28;20694;-67
2023/10/26 09:18:18;;;;;;;34.90;14.20;;;10.60;99.90;;;;;;5017654;28;20458;-81
2023/10/26 09:21:07;;;;;;;27.97;11.70;;;10.50;99.90;;;;;;4984864;28;20407;-78
2023/10/26 09:23:37;;;;;;;30.63;12.37;;;10.60;99.90;;;;;;4968433;28;20431;-81
2023/10/26 09:26:05;;;;;;;23.07;10.13;;;10.70;99.90;;;;;;4983851;28;20459;-79
2023/10/26 09:28:53;;;;;;;19.40;8.43;;;10.80;99.90;;;;;;4980007;28;20428;-78
2023/10/26 09:31:21;;;;;;;20.17;9.00;;;10.80;99.90;;;;;;4997990;28;20439;-78
2023/10/26 09:33:50;;;;;;;29.87;14.57;;;10.90;99.90;;;;;;4984014;28;20422;-79
2023/10/26 09:36:18;;;;;;;22.10;10.97;;;11.00;99.90;;;;;;4984201;28;20446;-78
2023/10/26 09:38:52;;;;;;;18.53;9.30;;;11.00;99.90;;;;;;5001652;28;20514;-81
2023/10/26 09:41:21;;;;;;;20.20;10.30;;;11.00;99.90;;;;;;4969088;28;20435;-83
2023/10/26 09:43:50;;;;;;;27.00;10.73;;;11.00;99.90;;;;;;5018230;28;20429;-83
2023/10/26 09:46:23;;;;;;;27.27;10.87;;;11.10;99.90;;;;;;4963178;28;20482;-85
2023/10/26 09:48:52;;;;;;;57.53;22.17;;;11.20;99.90;;;;;;4982855;28;20443;-83
2023/10/26 09:51:40;;;;;;;36.87;15.90;;;11.20;99.90;;;;;;5017251;28;20395;-81
2023/10/26 10:07:18;;;;;;;57.70;18.63;;;11.80;99.90;;;;;;4890270;23;20488;-81
2023/10/26 10:10:13;;;;;;;137.80;23.87;;;11.90;99.90;;;;;;5246002;23;20470;-82
2023/10/26 10:12:42;;;;;;;96.47;21.70;;;11.90;99.90;;;;;;4912387;29;20497;-83
2023/10/26 10:18:09;;;;;;;69.33;16.23;;;12.30;99.90;;;;;;5226798;23;20520;-79
2023/10/26 10:20:38;;;;;;;48.93;17.77;;;12.40;99.90;;;;;;4947624;29;20530;-80
2023/10/26 10:23:04;;;;;;;127.63;26.70;;;12.40;99.90;;;;;;4929668;29;20477;-80
2023/10/26 10:25:48;;;;;;;157.80;28.10;;;12.30;99.90;;;;;;4954308;28;20449;-82
2023/10/26 10:28:14;;;;;;;54.80;24.57;;;12.10;99.90;;;;;;4936040;29;20627;-71
2023/10/26 10:30:50;;;;;;;89.57;28.47;;;12.10;99.90;;;;;;4940047;29;20421;-71
2023/10/26 10:33:26;;;;;;;82.23;25.30;;;11.90;99.90;;;;;;4939793;29;20201;-73
2023/10/26 10:36:01;;;;;;;158.20;27.67;;;11.70;99.90;;;;;;4936596;29;21836;-71
2023/10/26 10:38:33;;;;;;;25.90;16.17;;;11.60;99.90;;;;;;4936816;29;20475;-74
2023/10/26 10:40:58;;;;;;;20.47;14.03;;;11.70;99.90;;;;;;4926311;29;21336;-73
2023/10/26 10:43:31;;;;;;;20.27;10.67;;;12.00;99.90;;;;;;4925173;29;20433;-72
2023/10/26 10:46:08;;;;;;;28.43;18.37;;;12.30;99.90;;;;;;4923247;29;20223;-71
2023/10/26 10:48:34;;;;;;;21.47;16.80;;;12.50;99.90;;;;;;4938120;29;20435;-72
2023/10/26 10:51:00;;;;;;;37.63;24.57;;;12.90;99.90;;;;;;4940490;29;20922;-73
2023/10/26 10:53:27;;;;;;;23.70;18.33;;;13.20;99.90;;;;;;4940585;29;20474;-72
2023/10/26 10:55:53;;;;;;;21.50;16.60;;;13.20;99.90;;;;;;4939664;28;20287;-74
2023/10/26 10:58:19;;;;;;;18.40;15.20;;;13.40;99.90;;;;;;4930571;29;20473;-71
2023/10/26 11:00:46;;;;;;;18.13;14.83;;;13.40;99.90;;;;;;4924995;29;20231;-70
2023/10/26 11:03:19;;;;;;;19.80;16.67;;;13.50;99.90;;;;;;4944306;29;20196;-73
2023/10/26 11:05:44;;;;;;;21.10;16.00;;;13.60;99.90;;;;;;4924708;29;20475;-70
2023/10/26 11:08:10;;;;;;;19.17;15.70;;;13.70;99.90;;;;;;4923750;29;20751;-71
2023/10/26 11:10:37;;;;;;;17.47;14.67;;;13.50;99.90;;;;;;4926803;29;20201;-73
2023/10/26 11:13:03;;;;;;;15.90;14.30;;;13.70;99.90;;;;;;4940776;29;20442;-73
2023/10/26 11:15:38;;;;;;;15.57;13.63;;;13.70;99.90;;;;;;4927561;28;20459;-74
2023/10/26 11:18:07;;;;;;;18.50;15.10;;;14.00;99.90;;;;;;4949421;29;20494;-69
2023/10/26 11:20:34;;;;;;;16.73;15.00;;;14.00;99.90;;;;;;4940601;29;20869;-71
2023/10/26 12:00:19;;;;;;;10.50;9.30;;;15.40;99.90;;;;;;3645561;23;20551;-70
2023/10/26 12:02:45;;;;;;;9.83;8.83;;;15.50;99.90;;;;;;4946497;29;20425;-71
2023/10/26 12:05:19;;;;;;;9.60;8.70;;;15.40;99.90;;;;;;4945966;29;20225;-73
2023/10/26 12:07:46;;;;;;;12.20;10.27;;;15.20;99.90;;;;;;4945469;29;20464;-72
2023/10/26 12:10:13;;;;;;;9.73;8.67;;;15.20;99.90;;;;;;4943341;29;20436;-69
2023/10/26 12:12:41;;;;;;;10.30;8.63;;;15.10;99.90;;;;;;4931794;29;20458;-82
2023/10/26 12:15:09;;;;;;;6.80;6.20;;;15.10;99.90;;;;;;4933622;29;20444;-80
2023/10/26 12:17:35;;;;;;;7.60;6.50;;;15.00;99.90;;;;;;4952437;29;20502;-79
2023/10/26 12:20:03;;;;;;;7.80;7.10;;;15.00;99.90;;;;;;4920782;29;20466;-80
2023/10/26 12:22:29;;;;;;;7.40;6.53;;;14.90;99.90;;;;;;4932856;29;20460;-80
2023/10/26 12:24:55;;;;;;;8.23;7.40;;;14.70;99.90;;;;;;4934894;29;20452;-81
2023/10/26 12:27:21;;;;;;;7.90;7.10;;;14.70;99.90;;;;;;4964730;28;20481;-79
2023/10/26 12:29:47;;;;;;;8.37;7.57;;;14.60;99.90;;;;;;4948753;29;20507;-80
2023/10/26 12:32:14;;;;;;;8.33;7.63;;;14.50;99.90;;;;;;4948726;28;20276;-80
2023/10/26 12:34:40;;;;;;;8.97;8.07;;;14.50;99.90;;;;;;4952572;29;20732;-81
2023/10/26 12:37:06;;;;;;;7.93;6.67;;;14.50;99.90;;;;;;4948680;28;20429;-79
2023/10/26 12:39:33;;;;;;;10.00;6.90;;;14.50;99.90;;;;;;4945320;29;20448;-81
2023/10/26 12:41:59;;;;;;;8.00;7.17;;;14.50;99.90;;;;;;4965958;23;20476;-81
2023/10/26 12:44:26;;;;;;;9.87;8.40;;;14.40;99.90;;;;;;4934700;29;20454;-82
2023/10/26 12:46:54;;;;;;;8.43;7.63;;;14.50;99.90;;;;;;4943386;29;20166;-82
2023/10/26 12:49:23;;;;;;;9.13;8.23;;;14.40;99.90;;;;;;4936095;29;20431;-83
2023/10/26 12:51:54;;;;;;;10.13;8.20;;;14.40;99.90;;;;;;4928428;29;20430;-80
2023/10/26 12:54:20;;;;;;;13.87;9.37;;;14.40;99.90;;;;;;4937243;29;20465;-80
2023/10/26 12:56:45;;;;;;;16.33;9.37;;;14.40;99.90;;;;;;4914052;29;20449;-81
2023/10/26 12:59:15;;;;;;;14.47;8.93;;;14.40;99.90;;;;;;4923704;29;20293;-79
2023/10/26 13:01:44;;;;;;;13.80;9.67;;;14.30;99.90;;;;;;4926493;29;20221;-80
2023/10/26 13:04:11;;;;;;;28.57;19.90;;;14.20;99.90;;;;;;4921831;29;20421;-80
2023/10/26 13:06:39;;;;;;;18.33;11.43;;;14.10;99.90;;;;;;4932320;29;20434;-82
2023/10/26 13:09:05;;;;;;;13.53;9.53;;;14.10;99.90;;;;;;4930515;29;20520;-82
2023/10/26 13:11:32;;;;;;;13.30;9.17;;;14.00;99.90;;;;;;4927918;29;20442;-80
2023/10/26 13:13:58;;;;;;;11.20;8.43;;;14.00;99.90;;;;;;4935822;29;20417;-81
2023/10/26 13:16:24;;;;;;;12.93;8.97;;;14.00;99.90;;;;;;4930110;29;20422;-78
2023/10/26 13:18:50;;;;;;;15.80;9.63;;;14.00;99.90;;;;;;4935213;29;20304;-79
2023/10/26 13:21:17;;;;;;;9.30;7.67;;;14.00;99.90;;;;;;4938458;29;20254;-79
2023/10/26 13:23:43;;;;;;;24.93;14.90;;;14.10;99.90;;;;;;4933242;29;20201;-80
2023/10/26 13:26:10;;;;;;;13.77;9.20;;;14.10;99.90;;;;;;4946869;29;20607;-82
2023/10/26 13:28:37;;;;;;;12.90;10.03;;;14.00;99.90;;;;;;4912206;29;20444;-82